Leon, OK (73441)

7:40 PM CDT on July 30, 2016 (GMT -0500)
Rural | | Change Station

Elev 981 ft 33.84 °N, 97.58 °W | Updated 9 seconds ago

Clear
Clear
95.5 °F
Feels Like 104 °F
N
2.6
Wind Variable Wind from SSW

Today
High -- | Low -- °F
--% Chance of Precip.
Yesterday
High -- | Low -- °F
Precip. -- in
Pressure 29.90 in
Visibility 10.0 miles
Clouds Clear
Heat Index 104 °F
Dew Point 72 °F
Humidity 47%
Rainfall 0.00 in
Snow Depth Not available.
6:40 AM 8:31 PM
Waning Crescent, 10% visible
METAR K1F0 310035Z AUTO 17006KT 10SM CLR 33/18 A2990 RMK AO2 LTG DSNT N
Pressure 29.90 in
Visibility 10.0 miles
Clouds Clear
Heat Index 104 °F
Dew Point 72 °F
Humidity 47%
Rainfall 0.00 in
Snow Depth Not available.
6:40 AM 8:31 PM
Waning Crescent, 10% visible
METAR K1F0 310035Z AUTO 17006KT 10SM CLR 33/18 A2990 RMK AO2 LTG DSNT N

10-Day Weather Forecast

Almanac

Astronomy

Jul. 30, 2016 Rise Set
Actual Time
Civil Twilight
Nautical Twilight
Astronomical Twilight
Moon
Length of Visible Light
Length of Day
Tomorrow will be .
, % of the Moon is Illuminated

Today's Extremes

State Highs State Lows

Community

WunderPhotos

Upload Photos

1,928,682 photos uploaded!

WunderBlog® & News

Nearby

Air Quality

  Air Quality AQ Index Pollutant
Not available.

Snow Depth

Station Depth Elevation

Earthquake Activity

City Distance Mag. Time & Date
Minimum magnitude displayed is 2.5.

Coastal Water Temperatures

Place Temperature

Stations

Nearby Weather Stations

Station Location Temp. Windchill Dew Point Humidity Wind Precip. Elev Updated Type
                   

Watches & Warnings

There are currently no watches in effect.